Time;durP1;ratioP1;P1;durP2;ratioP2;P2;SDS_P1;SDS_P2;PMS_P1;PMS_P2;Temp;Humidity;BMP_temperature;BMP_pressure;BME280_temperature;BME280_humidity;BME280_pressure;Samples;Min_cycle;Max_cycle;Signal;HPM_P1;HPM_P2
2022/07/30 00:01:54;;;;;;;2.95;1.60;;;;;;;15.69;100.00;101904.31;5091645;28;20047;-35
2022/07/30 00:04:23;;;;;;;3.65;1.75;;;;;;;15.69;100.00;101903.47;5091086;28;20048;-31
2022/07/30 00:06:50;;;;;;;3.45;1.52;;;;;;;15.67;100.00;101894.50;5089050;28;20044;-32
2022/07/30 00:09:18;;;;;;;4.10;1.60;;;;;;;15.69;100.00;101897.84;5088733;28;20040;-30
2022/07/30 00:11:46;;;;;;;3.67;1.40;;;;;;;15.69;100.00;101897.84;5089865;28;20052;-31
2022/07/30 00:14:14;;;;;;;2.47;1.45;;;;;;;15.69;100.00;101897.84;5088773;28;20048;-30
2022/07/30 00:16:42;;;;;;;3.90;1.52;;;;;;;15.70;100.00;101896.72;5090017;28;20066;-30
2022/07/30 00:19:11;;;;;;;5.53;1.50;;;;;;;15.67;100.00;101886.91;5089567;28;20481;-31
2022/07/30 00:21:40;;;;;;;2.33;1.30;;;;;;;15.67;100.00;101886.91;5070311;28;20044;-31
2022/07/30 00:24:10;;;;;;;2.72;1.40;;;;;;;15.67;100.00;101883.25;5086682;28;20098;-34
2022/07/30 00:26:38;;;;;;;2.75;1.42;;;;;;;15.65;100.00;101879.91;5090673;28;20048;-38
2022/07/30 00:29:06;;;;;;;3.03;1.50;;;;;;;15.65;100.00;101880.75;5091703;28;20119;-37
2022/07/30 00:31:34;;;;;;;3.30;1.45;;;;;;;15.65;100.00;101888.34;5090655;28;20097;-31
2022/07/30 00:34:02;;;;;;;3.70;1.50;;;;;;;15.65;100.00;101880.75;5090554;28;20067;-34
2022/07/30 00:36:31;;;;;;;3.55;1.50;;;;;;;15.66;100.00;101873.13;5090394;28;20515;-32
2022/07/30 00:38:59;;;;;;;4.25;1.83;;;;;;;15.68;100.00;101868.88;5091454;28;20102;-33
2022/07/30 00:41:28;;;;;;;3.17;1.60;;;;;;;15.71;100.00;101870.25;5091728;28;20063;-35
2022/07/30 00:43:55;;;;;;;3.20;1.70;;;;;;;15.74;100.00;101875.25;5095407;28;20492;-32
2022/07/30 00:46:23;;;;;;;3.42;1.80;;;;;;;15.74;100.00;101864.84;5094199;28;20071;-33
2022/07/30 00:48:51;;;;;;;3.75;1.40;;;;;;;15.76;100.00;101868.19;5093484;28;20055;-34
2022/07/30 00:51:19;;;;;;;4.55;1.80;;;;;;;15.78;100.00;101867.88;5084557;28;20058;-36
2022/07/30 00:53:48;;;;;;;5.15;1.88;;;;;;;15.81;100.00;101858.78;5095127;28;20040;-33
2022/07/30 00:56:16;;;;;;;3.92;1.77;;;;;;;15.83;100.00;101859.31;5094778;28;20058;-32
2022/07/30 00:58:44;;;;;;;4.82;1.90;;;;;;;15.83;100.00;101854.50;5094707;28;20071;-32
2022/07/30 01:01:11;;;;;;;5.75;2.22;;;;;;;15.83;100.00;101848.88;5091607;28;20050;-32
2022/07/30 01:03:39;;;;;;;4.03;2.50;;;;;;;15.84;100.00;101849.72;5094558;28;20044;-35
2022/07/30 01:06:08;;;;;;;5.63;2.30;;;;;;;15.84;100.00;101844.09;5093750;28;20044;-30
2022/07/30 01:08:42;;;;;;;3.42;2.10;;;;;;;15.82;100.00;101844.41;5093796;28;20412;-36
2022/07/30 01:11:11;;;;;;;5.80;2.20;;;;;;;15.82;100.00;101846.38;5094991;28;20048;-31
2022/07/30 01:13:42;;;;;;;3.97;1.95;;;;;;;15.81;100.00;101844.72;5095308;28;20459;-34
2022/07/30 01:16:10;;;;;;;4.75;2.05;;;;;;;15.81;100.00;101851.19;5094101;28;20059;-36
2022/07/30 01:21:32;;;;;;;3.50;1.80;;;;;;;15.81;100.00;101841.91;5094787;28;20493;-35
2022/07/30 01:24:11;;;;;;;5.55;2.28;;;;;;;15.81;100.00;101830.63;5093084;28;20058;-38
2022/07/30 01:26:41;;;;;;;6.80;2.20;;;;;;;15.81;100.00;101833.44;5093377;28;20083;-36
2022/07/30 01:29:10;;;;;;;4.55;1.75;;;;;;;15.80;100.00;101837.41;5093368;28;20056;-40
2022/07/30 01:31:39;;;;;;;5.55;2.05;;;;;;;15.80;100.00;101838.25;5092664;28;20056;-32
2022/07/30 01:34:08;;;;;;;4.05;1.63;;;;;;;15.80;100.00;101840.22;5093570;28;20459;-38
2022/07/30 01:36:37;;;;;;;3.03;1.52;;;;;;;15.76;100.00;101834.41;5093426;28;20540;-35
2022/07/30 01:39:05;;;;;;;3.65;1.77;;;;;;;15.76;100.00;101839.19;5093970;28;20043;-31
2022/07/30 01:41:33;;;;;;;4.20;1.90;;;;;;;15.75;100.00;101841.19;5094460;28;20052;-38
2022/07/30 01:44:04;;;;;;;5.80;2.22;;;;;;;15.75;100.00;101838.38;5093666;28;20051;-34
2022/07/30 01:46:33;;;;;;;3.72;1.63;;;;;;;15.73;100.00;101837.84;5092772;28;20056;-32
2022/07/30 01:49:02;;;;;;;3.47;1.52;;;;;;;15.72;100.00;101843.78;5093330;28;20055;-37
2022/07/30 01:51:34;;;;;;;2.97;1.75;;;;;;;15.70;100.00;101844.09;5092346;28;20047;-32
2022/07/30 01:54:08;;;;;;;6.43;1.83;;;;;;;15.69;100.00;101845.22;5093139;28;20469;-38
2022/07/30 01:56:37;;;;;;;3.85;1.70;;;;;;;15.68;100.00;101843.56;5093044;28;20054;-32
2022/07/30 01:59:08;;;;;;;4.13;1.60;;;;;;;15.68;100.00;101837.94;5093780;28;20044;-30
2022/07/30 02:01:36;;;;;;;4.55;1.63;;;;;;;15.68;100.00;101842.72;5094130;28;20048;-34
2022/07/30 02:04:05;;;;;;;3.72;1.63;;;;;;;15.66;100.00;101840.22;5092758;28;20520;-31
2022/07/30 02:06:38;;;;;;;3.75;1.65;;;;;;;15.67;100.00;101841.03;5093143;28;20055;-31
2022/07/30 02:09:10;;;;;;;4.82;1.52;;;;;;;15.66;100.00;101848.66;5092980;28;20063;-31
2022/07/30 02:14:38;;;;;;;3.90;1.95;;;;;;;15.66;100.00;101851.47;5092718;28;20494;-31
2022/07/30 02:17:08;;;;;;;4.13;2.08;;;;;;;15.67;100.00;101855.94;5093629;28;20131;-36
2022/07/30 02:19:49;;;;;;;4.63;1.85;;;;;;;15.69;100.00;101855.66;5093390;28;20044;-34
2022/07/30 02:22:19;;;;;;;;;;;;;;;15.68;100.00;101854.81;5092678;28;20052;-32
2022/07/30 02:24:51;;;;;;;4.20;1.60;;;;;;;15.68;100.00;101852.00;5093789;28;19927;-39
2022/07/30 02:27:24;;;;;;;3.80;1.55;;;;;;;15.76;100.00;101850.47;5092803;28;20050;-32
2022/07/30 02:29:55;;;;;;;3.53;1.60;;;;;;;15.80;100.00;101846.69;5092250;28;20155;-35
2022/07/30 02:32:26;;;;;;;6.25;1.90;;;;;;;15.87;100.00;101856.72;5092328;28;20096;-32
2022/07/30 02:35:00;;;;;;;5.70;2.08;;;;;;;15.89;100.00;101851.63;5091577;28;20048;-32
2022/07/30 02:37:31;;;;;;;4.53;1.90;;;;;;;15.91;100.00;101847.34;5092112;28;20040;-31
2022/07/30 02:40:15;;;;;;;4.85;1.95;;;;;;;15.93;100.00;101849.84;5083670;28;20050;-35
2022/07/30 02:42:46;;;;;;;3.33;1.63;;;;;;;15.96;100.00;101850.06;5092167;28;20493;-32
2022/07/30 02:45:20;;;;;;;4.63;1.88;;;;;;;15.98;100.00;101846.94;5092045;28;20044;-36
2022/07/30 02:47:51;;;;;;;3.30;1.58;;;;;;;15.98;100.00;101839.34;5091003;28;20052;-30
2022/07/30 02:50:21;;;;;;;5.32;2.05;;;;;;;15.97;100.00;101843.28;5081475;28;20058;-31
2022/07/30 02:52:51;;;;;;;4.30;2.08;;;;;;;15.95;100.00;101842.78;5091655;28;20416;-32
2022/07/30 02:55:19;;;;;;;4.03;1.50;;;;;;;15.95;100.00;101842.78;5091531;28;20390;-30
2022/07/30 02:57:48;;;;;;;2.55;1.67;;;;;;;15.96;100.00;101846.41;5091625;28;20090;-30
2022/07/30 03:00:18;;;;;;;9.88;2.35;;;;;;;15.97;100.00;101836.81;5091590;28;20143;-33
2022/07/30 03:02:46;;;;;;;4.78;1.90;;;;;;;15.98;100.00;101844.13;5092118;28;20468;-32
2022/07/30 03:05:15;;;;;;;4.90;1.83;;;;;;;15.98;100.00;101839.34;5092164;28;20055;-35
2022/07/30 03:07:45;;;;;;;5.38;1.80;;;;;;;15.98;100.00;101836.53;5091349;28;20066;-32
2022/07/30 03:10:14;;;;;;;3.15;1.63;;;;;;;15.98;100.00;101847.78;5090601;28;20412;-31
2022/07/30 03:12:45;;;;;;;4.72;1.90;;;;;;;15.97;100.00;101843.28;5091645;28;20059;-31
2022/07/30 03:15:13;;;;;;;3.15;1.50;;;;;;;15.96;100.00;101836.00;5092519;28;20067;-30
2022/07/30 03:17:48;;;;;;;6.18;2.10;;;;;;;15.98;100.00;101835.69;5092667;28;20047;-32
2022/07/30 03:20:20;;;;;;;5.65;2.00;;;;;;;15.97;100.00;101840.47;5092696;28;20071;-33
2022/07/30 03:22:53;;;;;;;4.28;1.83;;;;;;;15.96;100.00;101837.97;5092131;28;20489;-31
2022/07/30 03:25:24;;;;;;;5.95;1.70;;;;;;;15.94;100.00;101838.28;5091043;28;20472;-35
2022/07/30 03:27:56;;;;;;;4.43;1.50;;;;;;;15.93;100.00;101832.97;5070870;28;20469;-32
2022/07/30 03:30:25;;;;;;;4.80;1.92;;;;;;;15.92;100.00;101842.56;5102580;28;20094;-33
2022/07/30 03:32:56;;;;;;;3.78;1.65;;;;;;;15.92;100.00;101840.56;5090755;28;20091;-35
2022/07/30 03:35:25;;;;;;;3.10;1.80;;;;;;;15.89;100.00;101849.63;5089604;28;20618;-32
2022/07/30 03:37:55;;;;;;;4.43;2.00;;;;;;;15.89;100.00;101843.16;5088979;28;20180;-33
2022/07/30 03:40:24;;;;;;;2.47;1.40;;;;;;;15.88;100.00;101842.34;5090575;28;20047;-30
2022/07/30 03:42:52;;;;;;;4.10;1.67;;;;;;;15.85;100.00;101845.75;5090847;28;20539;-33
2022/07/30 03:45:24;;;;;;;3.95;1.50;;;;;;;15.84;100.00;101850.56;5089783;28;20142;-31
2022/07/30 03:47:59;;;;;;;4.40;1.60;;;;;;;15.84;100.00;101836.47;5090552;28;20135;-31
2022/07/30 03:50:29;;;;;;;4.60;1.63;;;;;;;15.84;100.00;101844.09;5089939;28;20048;-33
2022/07/30 03:52:58;;;;;;;5.43;1.90;;;;;;;15.84;100.00;101835.66;5090380;28;20477;-30
2022/07/30 03:55:27;;;;;;;3.88;1.85;;;;;;;15.85;100.00;101849.41;5090458;28;20044;-30
2022/07/30 03:58:16;;;;;;;4.28;1.73;;;;;;;15.87;100.00;101840.66;5069752;28;20493;-32
2022/07/30 04:00:47;;;;;;;3.95;1.70;;;;;;;15.91;100.00;101841.72;5090430;28;20048;-31
2022/07/30 04:03:25;;;;;;;4.07;1.73;;;;;;;15.95;100.00;101848.41;5090742;28;20052;-32
2022/07/30 04:05:55;;;;;;;3.70;1.60;;;;;;;15.96;100.00;101850.06;5089582;28;20050;-33
2022/07/30 04:08:24;;;;;;;7.82;1.75;;;;;;;15.99;100.00;101855.03;5090608;28;20048;-31
2022/07/30 04:10:54;;;;;;;6.13;1.92;;;;;;;16.02;100.00;101854.44;5090416;28;20076;-32
2022/07/30 04:13:43;;;;;;;6.55;1.92;;;;;;;16.03;100.00;101850.47;5087548;28;20048;-31
2022/07/30 04:16:16;;;;;;;5.20;2.00;;;;;;;16.08;100.00;101855.16;5089519;28;20473;-30
2022/07/30 04:19:10;;;;;;;4.03;1.73;;;;;;;16.10;100.00;101862.16;5089840;28;20042;-34
2022/07/30 04:21:40;;;;;;;3.53;1.52;;;;;;;16.11;100.00;101866.66;5090171;28;20040;-34
2022/07/30 04:24:11;;;;;;;2.53;1.60;;;;;;;16.12;100.00;101853.41;5091715;28;20056;-31
2022/07/30 04:26:39;;;;;;;5.13;1.90;;;;;;;16.12;100.00;101859.88;5089240;28;20050;-30
2022/07/30 04:29:09;;;;;;;5.70;1.85;;;;;;;16.16;100.00;101872.19;5090582;28;20174;-33
2022/07/30 04:31:44;;;;;;;4.93;1.83;;;;;;;16.15;100.00;101864.88;5091652;28;20094;-32
2022/07/30 04:34:37;;;;;;;3.10;1.63;;;;;;;16.15;100.00;101864.06;5090625;28;20409;-33
2022/07/30 04:37:08;;;;;;;3.15;1.60;;;;;;;16.15;100.00;101862.06;5090271;28;20055;-32
2022/07/30 04:39:35;;;;;;;2.58;1.23;;;;;;;16.15;100.00;101862.06;5090147;28;20055;-32
2022/07/30 04:42:03;;;;;;;5.10;1.60;;;;;;;16.18;100.00;101858.63;5090644;28;20071;-34
2022/07/30 04:44:35;;;;;;;3.70;1.47;;;;;;;16.20;100.00;101866.75;5090319;28;20142;-34
2022/07/30 04:47:26;;;;;;;3.58;1.70;;;;;;;16.22;100.00;101869.25;5084720;28;20141;-36
2022/07/30 04:50:14;;;;;;;4.80;1.80;;;;;;;16.25;100.00;101863.00;5091837;28;20050;-31
2022/07/30 04:52:45;;;;;;;4.32;1.80;;;;;;;16.27;100.00;101871.97;5089984;28;20052;-30
2022/07/30 04:55:21;;;;;;;3.08;1.50;;;;;;;16.28;100.00;101860.38;5089128;28;20567;-30
2022/07/30 04:57:51;;;;;;;5.95;1.60;;;;;;;16.30;100.00;101860.06;5091250;28;20047;-36
2022/07/30 05:00:19;;;;;;;5.13;2.25;;;;;;;16.29;100.00;101859.25;5090091;28;20504;-33
2022/07/30 05:02:49;;;;;;;4.75;1.58;;;;;;;16.32;100.00;101852.16;5089157;28;20051;-30
2022/07/30 05:05:19;;;;;;;5.22;1.75;;;;;;;16.32;100.00;101857.78;5091276;28;20522;-30
2022/07/30 05:07:47;;;;;;;3.78;1.50;;;;;;;16.33;100.00;101865.09;5091070;28;20062;-31
2022/07/30 05:10:17;;;;;;;4.40;1.60;;;;;;;16.33;100.00;101860.28;5089621;28;20080;-34
2022/07/30 05:12:46;;;;;;;6.45;1.75;;;;;;;16.34;100.00;101866.75;5089920;28;20093;-30
2022/07/30 05:15:16;;;;;;;3.15;1.60;;;;;;;16.34;100.00;101872.41;5089325;28;20428;-30
2022/07/30 05:17:44;;;;;;;4.25;1.40;;;;;;;16.34;100.00;101870.41;5091115;28;20091;-36
2022/07/30 05:20:13;;;;;;;3.58;1.60;;;;;;;16.36;100.00;101875.75;5090945;28;20535;-33
2022/07/30 05:23:02;;;;;;;3.58;1.80;;;;;;;16.37;100.00;101878.25;5088509;28;20046;-30
2022/07/30 05:25:30;;;;;;;4.28;1.80;;;;;;;16.40;100.00;101876.75;5087687;28;20085;-30
2022/07/30 05:28:11;;;;;;;4.00;1.70;;;;;;;16.44;100.00;101878.63;5089938;28;20043;-34
2022/07/30 05:30:38;;;;;;;4.13;1.63;;;;;;;16.51;100.00;101883.84;5091615;28;20054;-30
2022/07/30 05:33:14;;;;;;;3.25;1.60;;;;;;;16.58;100.00;101883.44;5093677;28;20422;-30
2022/07/30 05:35:43;;;;;;;2.55;1.60;;;;;;;16.66;100.00;101897.66;5092382;28;20047;-31
2022/07/30 05:38:13;;;;;;;4.10;1.70;;;;;;;16.75;100.00;101895.75;5091590;28;20086;-34
2022/07/30 05:41:06;;;;;;;4.55;1.90;;;;;;;16.85;100.00;101903.16;5084166;28;20052;-37
2022/07/30 05:44:15;;;;;;;3.55;1.80;;;;;;;16.95;100.00;101904.91;5093019;28;20157;-29
2022/07/30 05:46:49;;;;;;;4.72;1.90;;;;;;;17.01;100.00;101909.25;5093066;28;20056;-31
2022/07/30 05:49:17;;;;;;;6.47;1.83;;;;;;;17.07;100.00;101908.00;5092996;28;20051;-30
2022/07/30 05:51:45;;;;;;;2.70;1.38;;;;;;;17.12;100.00;101908.72;5092241;28;20048;-32
2022/07/30 05:54:14;;;;;;;3.83;1.60;;;;;;;17.19;100.00;101916.72;5092935;28;20048;-38
2022/07/30 05:57:00;;;;;;;2.67;1.60;;;;;;;17.28;100.00;101919.63;5094587;28;20585;-33
2022/07/30 05:59:34;;;;;;;4.00;1.40;;;;;;;17.38;100.00;101917.44;5092742;28;20571;-30
2022/07/30 06:02:22;;;;;;;6.72;1.50;;;;;;;17.49;100.00;101916.00;5087024;28;20064;-31
2022/07/30 06:05:17;;;;;;;3.17;1.20;;;;;;;17.59;100.00;101912.06;5066237;28;20063;-32
2022/07/30 06:07:47;;;;;;;3.63;1.48;;;;;;;17.67;100.00;101921.81;5092453;28;20071;-34
2022/07/30 06:10:19;;;;;;;3.42;1.50;;;;;;;17.72;100.00;101922.53;5092460;28;20071;-35
2022/07/30 06:12:47;;;;;;;5.50;1.55;;;;;;;17.76;100.00;101917.91;5092051;28;20051;-32
2022/07/30 06:15:17;;;;;;;4.03;1.35;;;;;;;17.80;100.00;101918.06;5092485;28;20044;-32
2022/07/30 06:17:53;;;;;;;3.25;1.20;;;;;;;17.83;100.00;101920.25;5092802;28;20556;-34
2022/07/30 06:20:50;;;;;;;2.97;1.30;;;;;;;17.89;100.00;101919.81;5092260;28;20109;-30
2022/07/30 06:23:37;;;;;;;4.00;1.30;;;;;;;17.99;100.00;101929.16;5093047;28;20054;-34
2022/07/30 06:26:42;;;;;;;2.60;1.30;;;;;;;18.02;100.00;101932.16;5027910;28;20104;-37
2022/07/30 06:29:10;;;;;;;2.08;1.10;;;;;;;18.07;100.00;101931.19;5068092;28;20467;-37
2022/07/30 06:31:40;;;;;;;3.38;1.00;;;;;;;18.11;100.00;101929.41;5091782;28;20044;-31
2022/07/30 06:34:10;;;;;;;2.10;1.10;;;;;;;18.24;100.00;101932.13;5089955;28;20148;-32
2022/07/30 06:36:41;;;;;;;2.47;1.10;;;;;;;18.40;100.00;101928.84;5091150;28;20101;-33
2022/07/30 06:39:15;;;;;;;2.10;1.10;;;;;;;18.76;100.00;101926.69;5069569;28;20052;-38
2022/07/30 06:42:33;;;;;;;2.10;1.10;;;;;;;19.15;100.00;101931.44;5089717;28;20043;-38
2022/07/30 06:45:19;;;;;;;3.92;1.20;;;;;;;19.44;100.00;101939.25;5090570;28;20097;-32
2022/07/30 06:48:06;;;;;;;2.20;1.05;;;;;;;19.66;100.00;101934.63;5090897;28;20089;-34
2022/07/30 06:50:35;;;;;;;3.45;1.35;;;;;;;20.00;100.00;101928.88;5091879;28;20052;-33
2022/07/30 06:53:03;;;;;;;3.63;1.10;;;;;;;20.45;100.00;101936.94;5089581;28;20048;-34
2022/07/30 06:55:51;;;;;;;2.38;1.00;;;;;;;20.78;100.00;101934.28;5091428;28;20101;-30
2022/07/30 06:58:28;;;;;;;3.63;1.20;;;;;;;21.17;99.20;101927.34;5089881;28;20140;-32
2022/07/30 07:01:16;;;;;;;3.67;1.20;;;;;;;21.56;95.66;101920.38;5091066;28;20127;-40
2022/07/30 07:03:44;;;;;;;3.42;1.05;;;;;;;21.85;93.40;101919.41;5079593;28;20055;-37
2022/07/30 07:06:12;;;;;;;3.03;1.20;;;;;;;22.14;92.06;101924.16;5091351;28;20036;-39
2022/07/30 07:08:41;;;;;;;4.22;1.30;;;;;;;22.77;90.18;101917.00;5089235;28;20079;-39
2022/07/30 07:11:11;;;;;;;3.85;1.10;;;;;;;23.53;86.77;101913.31;5090071;28;20052;-42
2022/07/30 07:13:47;;;;;;;2.72;0.90;;;;;;;24.29;81.61;101905.66;5089936;28;20051;-37
2022/07/30 07:16:24;;;;;;;2.05;0.80;;;;;;;24.96;77.25;101903.69;5089436;28;20408;-40
2022/07/30 07:18:55;;;;;;;2.75;1.00;;;;;;;25.56;73.37;101913.63;5090193;28;20044;-31
2022/07/30 07:21:23;;;;;;;3.97;0.82;;;;;;;26.20;70.17;101914.06;5090747;28;20052;-31
2022/07/30 07:23:54;;;;;;;2.80;0.90;;;;;;;26.86;67.12;101907.06;5090157;28;20040;-32
2022/07/30 07:26:40;;;;;;;3.70;0.90;;;;;;;27.53;62.52;101912.97;5091213;28;20113;-37
2022/07/30 07:29:10;;;;;;;2.20;0.70;;;;;;;28.06;58.04;101905.81;5088596;28;20077;-31
2022/07/30 07:31:38;;;;;;;1.90;0.80;;;;;;;28.48;56.06;101906.66;5090756;28;20477;-38
2022/07/30 07:34:27;;;;;;;2.03;0.70;;;;;;;28.90;54.78;101907.03;5090742;28;20123;-31
2022/07/30 07:36:54;;;;;;;2.65;0.63;;;;;;;29.32;51.34;101903.59;5090048;28;20135;-35
2022/07/30 07:39:23;;;;;;;1.90;0.80;;;;;;;29.69;49.64;101911.19;5090851;28;20450;-37
2022/07/30 07:41:51;;;;;;;2.42;0.80;;;;;;;30.05;48.30;101915.84;5090515;28;20056;-31
2022/07/30 07:44:24;;;;;;;2.40;0.88;;;;;;;30.43;45.99;101911.38;5089749;28;20090;-33
2022/07/30 07:46:52;;;;;;;2.35;0.90;;;;;;;30.78;45.22;101918.38;5090905;28;20511;-33
2022/07/30 07:49:21;;;;;;;2.47;0.95;;;;;;;31.12;43.47;101925.38;5090194;28;20131;-34
2022/07/30 07:51:51;;;;;;;1.50;0.60;;;;;;;31.38;42.81;101923.22;5089988;28;20064;-36
2022/07/30 07:54:21;;;;;;;1.60;0.80;;;;;;;31.62;42.28;101927.28;5090553;28;20055;-34
2022/07/30 07:56:54;;;;;;;2.65;0.80;;;;;;;31.87;42.29;101925.13;5070587;28;20048;-33
2022/07/30 07:59:31;;;;;;;2.67;0.80;;;;;;;32.13;40.92;101923.75;5087055;28;20456;-42
2022/07/30 08:02:09;;;;;;;2.05;0.60;;;;;;;32.34;40.43;101925.69;5070484;28;20164;-37
2022/07/30 08:04:49;;;;;;;3.07;0.80;;;;;;;32.58;39.87;101933.34;5087060;28;20050;-39
2022/07/30 08:07:38;;;;;;;1.95;0.60;;;;;;;32.83;39.28;101939.75;5090526;28;20560;-38
2022/07/30 08:10:25;;;;;;;1.38;0.60;;;;;;;33.05;38.08;101934.59;5091314;28;20071;-42
2022/07/30 08:13:12;;;;;;;1.48;0.55;;;;;;;33.05;37.54;101930.88;5091590;28;20272;-34
2022/07/30 08:16:20;;;;;;;1.67;0.50;;;;;;;33.01;37.63;101930.91;5082105;28;20051;-33
2022/07/30 08:19:06;;;;;;;2.20;0.60;;;;;;;33.19;37.17;101940.22;5090742;28;20074;-31
2022/07/30 08:21:38;;;;;;;1.83;0.77;;;;;;;33.46;36.44;101925.91;5090215;28;20515;-38
2022/07/30 08:24:07;;;;;;;1.27;0.60;;;;;;;33.76;35.39;101933.81;5090349;28;20052;-37
2022/07/30 08:26:37;;;;;;;2.30;0.70;;;;;;;33.97;34.91;101931.91;5089195;28;20072;-32
2022/07/30 08:29:05;;;;;;;2.20;0.68;;;;;;;34.10;34.66;101932.94;5091305;28;20128;-38
2022/07/30 08:31:35;;;;;;;2.05;0.70;;;;;;;34.22;34.13;101929.44;5090262;28;20078;-42
2022/07/30 08:34:03;;;;;;;1.73;0.55;;;;;;;34.38;34.32;101935.41;5088700;28;20048;-32
2022/07/30 08:36:31;;;;;;;2.55;0.60;;;;;;;34.09;34.41;101940.00;5090084;28;20501;-36
2022/07/30 08:38:59;;;;;;;2.25;0.70;;;;;;;34.17;34.52;101932.84;5089274;28;20101;-39
2022/07/30 08:41:27;;;;;;;2.35;0.70;;;;;;;34.39;33.42;101942.84;5089662;28;20047;-34
2022/07/30 08:43:57;;;;;;;1.88;0.65;;;;;;;34.63;33.33;101948.69;5090217;28;20051;-35
2022/07/30 08:46:30;;;;;;;2.05;0.70;;;;;;;34.75;32.37;101943.13;5089100;28;20497;-34
2022/07/30 08:49:07;;;;;;;1.75;0.60;;;;;;;34.63;32.76;101951.59;5089780;28;20054;-36
2022/07/30 08:51:39;;;;;;;1.65;0.50;;;;;;;34.59;33.25;101945.84;5090031;28;20048;-33
2022/07/30 08:54:20;;;;;;;2.08;0.60;;;;;;;34.75;32.13;101948.91;5089377;28;20071;-33
2022/07/30 08:56:49;;;;;;;1.80;0.50;;;;;;;34.86;31.91;101954.53;5090708;28;20052;-32
2022/07/30 08:59:18;;;;;;;2.65;0.75;;;;;;;34.83;31.69;101958.31;5089885;28;20052;-38
2022/07/30 09:01:46;;;;;;;1.90;0.60;;;;;;;34.47;32.00;101966.75;5090196;28;20059;-32
2022/07/30 09:04:15;;;;;;;2.80;0.63;;;;;;;34.22;33.12;101972.91;5094980;28;20044;-40
2022/07/30 09:06:43;;;;;;;2.53;0.80;;;;;;;34.26;33.11;101962.09;5093699;28;20083;-37
2022/07/30 09:09:11;;;;;;;2.55;0.52;;;;;;;34.49;32.89;101976.66;5089143;28;20052;-39
2022/07/30 09:11:40;;;;;;;2.15;0.60;;;;;;;34.76;32.39;101962.16;5092971;28;20048;-38
2022/07/30 09:14:09;;;;;;;1.65;0.55;;;;;;;34.85;32.17;101965.31;5094549;28;20048;-44
2022/07/30 09:16:38;;;;;;;1.42;0.50;;;;;;;34.63;32.31;101961.13;5093093;28;20076;-40
2022/07/30 09:19:16;;;;;;;1.38;0.60;;;;;;;34.64;31.51;101959.84;5095046;28;20064;-40
2022/07/30 09:21:55;;;;;;;2.15;0.80;;;;;;;34.80;31.18;101956.28;5092528;28;20113;-38
2022/07/30 09:24:41;;;;;;;1.23;0.45;;;;;;;34.99;30.86;101955.53;5093655;28;20056;-38
2022/07/30 09:27:43;;;;;;;1.58;0.55;;;;;;;34.98;30.94;101942.28;5094543;28;20154;-41
2022/07/30 09:30:44;;;;;;;1.27;0.47;;;;;;;34.98;31.69;101944.38;5094777;28;20520;-40
2022/07/30 09:33:36;;;;;;;2.00;0.75;;;;;;;35.02;31.49;101939.34;5093636;28;20070;-38
2022/07/30 09:36:25;;;;;;;2.53;0.70;;;;;;;34.97;31.33;101934.88;5093993;28;20055;-40
2022/07/30 09:39:13;;;;;;;1.38;0.55;;;;;;;35.14;31.25;101930.81;5086331;28;20091;-39
2022/07/30 09:42:02;;;;;;;2.13;0.70;;;;;;;35.23;30.90;101933.94;5093891;28;20055;-39
2022/07/30 09:44:31;;;;;;;2.33;0.50;;;;;;;35.37;31.31;101937.88;5092745;28;20062;-38
2022/07/30 09:47:01;;;;;;;1.88;0.50;;;;;;;35.42;31.01;101940.25;5092494;28;20078;-40
2022/07/30 09:49:34;;;;;;;1.20;0.50;;;;;;;35.40;30.81;101929.06;5092724;28;20532;-39
2022/07/30 09:52:03;;;;;;;2.05;0.57;;;;;;;35.39;30.53;101935.31;5092863;28;20127;-39
2022/07/30 09:54:47;;;;;;;1.50;0.50;;;;;;;34.77;31.04;101939.78;5093249;28;20455;-37
2022/07/30 09:57:22;;;;;;;1.80;0.60;;;;;;;34.38;31.63;101947.00;5091818;28;20052;-38
2022/07/30 10:00:00;;;;;;;1.30;0.50;;;;;;;34.28;31.33;101950.06;5092997;28;20048;-34
2022/07/30 10:02:31;;;;;;;1.25;0.50;;;;;;;33.95;31.64;101952.59;5093610;28;20051;-35
2022/07/30 10:05:19;;;;;;;1.55;0.60;;;;;;;33.83;31.42;101947.38;5092979;28;20413;-37
2022/07/30 10:07:50;;;;;;;1.52;0.60;;;;;;;34.04;31.26;101943.38;5092353;28;20089;-39
2022/07/30 10:10:21;;;;;;;2.22;0.60;;;;;;;34.19;31.04;101944.78;5091837;28;20059;-35
2022/07/30 10:12:54;;;;;;;1.77;0.73;;;;;;;34.59;30.28;101933.44;5092747;28;20040;-42
2022/07/30 10:15:27;;;;;;;2.55;0.60;;;;;;;34.61;30.63;101937.53;5092891;28;20054;-37
2022/07/30 10:17:56;;;;;;;1.88;0.50;;;;;;;34.71;31.50;101942.34;5093107;28;20481;-33
2022/07/30 10:20:43;;;;;;;1.73;0.60;;;;;;;34.82;31.34;101937.19;5093763;28;20050;-33
2022/07/30 10:23:51;;;;;;;1.02;0.43;;;;;;;34.91;31.09;101947.41;5093324;28;20090;-33
2022/07/30 10:26:38;;;;;;;1.10;0.40;;;;;;;35.08;30.91;101944.19;5093358;28;20432;-33
2022/07/30 10:29:29;;;;;;;1.60;0.50;;;;;;;35.09;30.89;101940.03;5093259;28;20079;-33
2022/07/30 10:32:01;;;;;;;1.13;0.50;;;;;;;35.18;30.86;101937.34;5073224;28;20094;-37
2022/07/30 10:34:29;;;;;;;1.83;0.50;;;;;;;35.30;30.69;101946.72;5088133;28;20071;-37
2022/07/30 10:37:05;;;;;;;1.30;0.40;;;;;;;35.33;30.40;101949.56;5093675;28;20052;-33
2022/07/30 10:39:38;;;;;;;1.65;0.45;;;;;;;35.41;30.04;101944.41;5092783;28;20058;-41
2022/07/30 10:42:24;;;;;;;1.45;0.50;;;;;;;35.59;29.56;101950.66;5093273;28;20483;-37
2022/07/30 10:45:16;;;;;;;1.50;0.60;;;;;;;35.66;29.69;101947.63;5093304;28;20087;-35
2022/07/30 10:47:46;;;;;;;0.90;0.40;;;;;;;35.39;29.84;101946.94;5069527;28;20060;-41
2022/07/30 10:50:18;;;;;;;1.65;0.57;;;;;;;35.19;30.29;101943.97;5090305;28;20036;-35
2022/07/30 10:52:51;;;;;;;1.10;0.50;;;;;;;34.93;30.30;101942.00;5092697;28;20055;-33
2022/07/30 10:55:25;;;;;;;1.00;0.40;;;;;;;34.84;30.39;101940.47;5093192;28;20117;-33
2022/07/30 10:58:07;;;;;;;1.30;0.60;;;;;;;34.63;30.69;101952.41;5072932;28;20109;-30
2022/07/30 11:00:57;;;;;;;;;;;;;;;34.27;29.57;101955.03;5089811;28;20054;-35
2022/07/30 11:03:26;;;;;;;1.42;0.47;;;;;;;34.23;31.66;101954.25;5093206;28;19927;-32
2022/07/30 11:06:28;;;;;;;1.67;0.43;;;;;;;34.43;30.40;101952.31;5092771;28;20092;-32
2022/07/30 11:08:55;;;;;;;2.00;0.60;;;;;;;34.37;31.74;101951.19;5091436;28;20052;-30
2022/07/30 11:11:45;;;;;;;1.27;0.50;;;;;;;34.27;31.09;101957.09;5091373;28;20048;-31
2022/07/30 11:14:56;;;;;;;1.10;0.43;;;;;;;34.10;31.21;101941.63;5090705;28;20095;-35
2022/07/30 11:17:23;;;;;;;;;;;;;;;33.86;30.08;101944.44;5088839;28;20067;-33
2022/07/30 11:20:10;;;;;;;0.90;0.40;;;;;;;33.84;31.01;101954.81;5092648;28;19934;-33
2022/07/30 11:22:43;;;;;;;2.15;0.70;;;;;;;33.73;32.10;101936.75;5083141;28;20044;-31
2022/07/30 11:25:41;;;;;;;1.20;0.50;;;;;;;33.53;30.82;101956.84;5092086;28;20036;-32
2022/07/30 11:28:40;;;;;;;1.77;0.50;;;;;;;33.16;32.04;101941.09;5083533;28;20418;-36
2022/07/30 11:31:31;;;;;;;1.50;0.50;;;;;;;33.05;32.36;101933.75;5084892;28;20055;-35
2022/07/30 11:34:31;;;;;;;1.98;0.60;;;;;;;33.05;32.54;101934.59;5072540;28;20449;-30
2022/07/30 11:37:11;;;;;;;2.03;0.70;;;;;;;32.97;32.70;101935.94;5080590;28;20068;-39
2022/07/30 11:40:11;;;;;;;1.40;0.50;;;;;;;32.62;33.00;101944.88;5092218;28;20144;-37
2022/07/30 11:42:41;;;;;;;1.67;0.52;;;;;;;32.37;33.53;101940.13;5091112;28;20051;-34
2022/07/30 11:45:29;;;;;;;2.30;0.60;;;;;;;32.18;33.92;101935.66;5091195;28;20055;-37
2022/07/30 11:48:00;;;;;;;1.50;0.70;;;;;;;32.05;34.03;101951.84;5090406;28;20052;-36
2022/07/30 11:50:32;;;;;;;2.58;0.60;;;;;;;31.77;34.28;101935.50;5091555;28;20071;-33
2022/07/30 11:53:03;;;;;;;1.77;0.68;;;;;;;31.39;34.17;101934.34;5089598;28;20044;-32
2022/07/30 11:55:33;;;;;;;1.55;0.60;;;;;;;30.92;34.93;101940.63;5092065;28;20390;-37
2022/07/30 11:58:03;;;;;;;1.85;0.60;;;;;;;30.32;35.86;101936.47;5091062;28;20036;-35
2022/07/30 12:00:37;;;;;;;2.30;0.88;;;;;;;29.98;36.57;101935.13;5089997;28;20054;-34
2022/07/30 12:03:13;;;;;;;1.80;0.60;;;;;;;29.89;36.83;101941.25;5090489;28;20769;-34